Pembroke, New York
Current Conditions -  °F | °C
As of 4:54 PM on Friday 24 Oct 2014 (Local Time) from KBUF Reporting Station
Broken Clouds Broken Clouds  
Wind Chill: 51°   Ceiling: 19000
Heat Index: 51°   Visibility: 10mi
Dew Point: 42°   Wind: 14mph
Humidity: 71%   Direction: 240°WSW
Pressure: 29.95"   Gusts: NA
Location:  42.975°N, 78.3857°W
Report Text: KBUF 242054Z 24012KT 10SM FEW030 BKN190 BKN250 11/06 A2995 RMK AO2 SLP146 T01060056 56015
Loading
Personal Weather Stations






























Interactive Weather Map
Tropical Storm Tracking
New forecast layout! Learn more

10-Day Weather Forecast

Advertisements
Track Severe Weather on mobile